createdAt,value
2019-04-16T00:00:42.718Z,3.60
2019-04-16T00:01:44.584Z,3.53
2019-04-16T00:02:40.972Z,3.60
2019-04-16T00:03:40.962Z,3.52
2019-04-16T00:04:40.953Z,3.50
2019-04-16T00:05:40.974Z,3.39
2019-04-16T00:06:40.925Z,3.53
2019-04-16T00:07:40.919Z,3.50
2019-04-16T00:08:40.908Z,3.47
2019-04-16T00:09:40.900Z,3.39
2019-04-16T00:10:40.926Z,3.39
2019-04-16T00:11:40.888Z,3.24
2019-04-16T00:12:40.881Z,3.25
2019-04-16T00:13:40.861Z,3.18
2019-04-16T00:14:40.848Z,3.25
2019-04-16T00:15:42.026Z,3.15
2019-04-16T00:16:41.415Z,3.23
2019-04-16T00:17:40.837Z,3.20
2019-04-16T00:18:40.818Z,3.13
2019-04-16T00:19:40.818Z,3.09
2019-04-16T00:20:40.800Z,3.05
2019-04-16T00:21:41.291Z,3.05
2019-04-16T00:22:40.767Z,2.97
2019-04-16T00:23:40.762Z,3.07
2019-04-16T00:24:40.753Z,3.12
2019-04-16T00:25:40.762Z,3.09
2019-04-16T00:26:40.740Z,3.10
2019-04-16T00:27:40.716Z,2.91
2019-04-16T00:28:40.718Z,2.91
2019-04-16T00:29:40.700Z,2.91
2019-04-16T00:30:40.730Z,2.85
2019-04-16T00:31:40.677Z,2.84
2019-04-16T00:32:42.571Z,2.92
2019-04-16T00:33:42.855Z,2.87
2019-04-16T00:34:44.484Z,2.81
2019-04-16T00:35:40.687Z,2.66
2019-04-16T00:36:40.621Z,2.69
2019-04-16T00:37:40.664Z,2.63
2019-04-16T00:38:41.301Z,2.66
2019-04-16T00:39:40.595Z,2.58
2019-04-16T00:40:40.615Z,2.53
2019-04-16T00:41:40.577Z,2.45
2019-04-16T00:42:40.559Z,2.34
2019-04-16T00:43:40.551Z,2.40
2019-04-16T00:44:40.546Z,2.44
2019-04-16T00:45:40.559Z,2.44
2019-04-16T00:46:40.519Z,2.40
2019-04-16T00:47:40.515Z,2.41
2019-04-16T00:48:40.506Z,2.44
2019-04-16T00:49:40.492Z,2.45
2019-04-16T00:50:40.505Z,2.45
2019-04-16T00:51:40.465Z,2.45
2019-04-16T00:52:40.455Z,2.35
2019-04-16T00:53:40.452Z,2.31
2019-04-16T00:54:42.456Z,2.27
2019-04-16T00:55:42.282Z,2.17
2019-04-16T00:56:40.433Z,2.20
2019-04-16T00:57:40.446Z,2.19
2019-04-16T00:58:40.404Z,2.15
2019-04-16T00:59:40.392Z,2.20
2019-04-16T01:00:40.397Z,1.99
2019-04-16T01:01:40.378Z,2.04
2019-04-16T01:02:40.372Z,2.10
2019-04-16T01:03:40.387Z,2.17
2019-04-16T01:04:40.390Z,2.30
2019-04-16T01:05:40.338Z,2.30
2019-04-16T01:06:40.643Z,2.35
2019-04-16T01:07:40.310Z,2.34
2019-04-16T01:08:53.581Z,2.38
2019-04-16T01:09:41.315Z,2.44
2019-04-16T01:10:40.340Z,2.44
2019-04-16T01:11:40.273Z,2.53
2019-04-16T01:12:40.282Z,2.59
2019-04-16T01:13:40.260Z,2.55
2019-04-16T01:14:40.237Z,2.45
2019-04-16T01:15:40.226Z,2.34
2019-04-16T01:16:40.233Z,2.37
2019-04-16T01:17:40.197Z,2.33
2019-04-16T01:18:40.225Z,2.30
2019-04-16T01:19:41.210Z,2.22
2019-04-16T01:20:43.310Z,2.23
2019-04-16T01:21:44.523Z,2.20
2019-04-16T01:22:40.191Z,2.19
2019-04-16T01:23:40.177Z,2.23
2019-04-16T01:24:40.141Z,2.15
2019-04-16T01:25:40.123Z,2.10
2019-04-16T01:26:40.283Z,2.04
2019-04-16T01:27:40.104Z,2.10
2019-04-16T01:28:40.096Z,2.08
2019-04-16T01:29:40.078Z,2.09
2019-04-16T01:30:40.078Z,2.12
2019-04-16T01:31:40.085Z,2.16
2019-04-16T01:32:42.430Z,2.04
2019-04-16T01:33:40.132Z,1.90
2019-04-16T01:34:40.132Z,1.91
2019-04-16T01:35:40.077Z,1.87
2019-04-16T01:36:40.168Z,1.80
2019-04-16T01:37:39.999Z,1.85
2019-04-16T01:38:39.988Z,1.83
2019-04-16T01:39:39.990Z,1.64
2019-04-16T01:40:39.974Z,1.65
2019-04-16T01:41:39.999Z,1.64
2019-04-16T01:42:39.963Z,1.68
2019-04-16T01:43:39.968Z,1.55
2019-04-16T01:44:39.968Z,1.57
2019-04-16T01:45:39.920Z,1.52
2019-04-16T01:46:39.941Z,1.55
2019-04-16T01:47:39.902Z,1.54
2019-04-16T01:48:39.904Z,1.60
2019-04-16T01:49:42.146Z,1.50
2019-04-16T01:50:43.533Z,1.47
2019-04-16T01:51:39.901Z,1.47
2019-04-16T01:52:39.859Z,1.46
2019-04-16T01:53:39.843Z,1.42
2019-04-16T01:54:39.832Z,1.42
2019-04-16T01:55:42.316Z,1.37
2019-04-16T01:56:39.844Z,1.39
2019-04-16T01:57:39.797Z,1.47
2019-04-16T01:58:39.788Z,1.39
2019-04-16T01:59:39.778Z,1.42
2019-04-16T02:00:40.030Z,1.24
2019-04-16T02:01:40.322Z,1.24
2019-04-16T02:02:39.785Z,1.10
2019-04-16T02:03:39.741Z,1.18
2019-04-16T02:04:39.728Z,1.22
2019-04-16T02:05:39.775Z,1.19
2019-04-16T02:06:39.706Z,1.26
2019-04-16T02:07:39.725Z,1.26
2019-04-16T02:08:39.699Z,1.37
2019-04-16T02:09:39.681Z,1.33
2019-04-16T02:10:39.889Z,1.36
2019-04-16T02:11:41.400Z,1.34
2019-04-16T02:12:43.353Z,1.39
2019-04-16T02:13:39.677Z,1.24
2019-04-16T02:14:39.677Z,1.24
2019-04-16T02:15:39.664Z,1.24
2019-04-16T02:16:39.710Z,1.14
2019-04-16T02:17:39.637Z,1.08
2019-04-16T02:18:39.646Z,1.10
2019-04-16T02:19:39.636Z,0.96
2019-04-16T02:20:39.703Z,0.96
2019-04-16T02:21:41.442Z,0.89
2019-04-16T02:22:42.325Z,0.90
2019-04-16T02:23:40.581Z,0.86
2019-04-16T02:24:39.569Z,0.98
2019-04-16T02:25:39.549Z,0.92
2019-04-16T02:26:39.558Z,0.79
2019-04-16T02:27:39.639Z,0.78
2019-04-16T02:28:39.536Z,0.64
2019-04-16T02:29:39.658Z,0.70
2019-04-16T02:30:39.880Z,0.62
2019-04-16T02:31:39.507Z,0.70
2019-04-16T02:32:39.486Z,0.68
2019-04-16T02:33:39.485Z,0.64
2019-04-16T02:34:39.573Z,0.67
2019-04-16T02:35:39.457Z,0.71
2019-04-16T02:36:39.431Z,0.65
2019-04-16T02:37:39.434Z,0.64
2019-04-16T02:38:46.331Z,0.62
2019-04-16T02:39:49.334Z,0.64
2019-04-16T02:40:40.401Z,0.57
2019-04-16T02:41:39.458Z,0.51
2019-04-16T02:42:39.387Z,0.53
2019-04-16T02:43:41.066Z,0.49
2019-04-16T02:44:39.441Z,0.45
2019-04-16T02:45:39.412Z,0.60
2019-04-16T02:46:39.404Z,0.61
2019-04-16T02:47:41.942Z,0.53
2019-04-16T02:48:39.314Z,0.62
2019-04-16T02:49:39.325Z,0.60
2019-04-16T02:50:39.304Z,0.53
2019-04-16T02:51:41.361Z,0.58
2019-04-16T02:52:39.284Z,0.52
2019-04-16T02:53:39.265Z,0.41
2019-04-16T02:54:39.258Z,0.43
2019-04-16T02:55:43.232Z,0.41
2019-04-16T02:56:40.296Z,0.45
2019-04-16T02:57:39.238Z,0.36
2019-04-16T02:58:39.301Z,0.38
2019-04-16T02:59:45.688Z,0.28
2019-04-16T03:00:40.307Z,0.30
2019-04-16T03:01:39.198Z,0.27
2019-04-16T03:02:39.191Z,0.18
2019-04-16T03:03:39.253Z,0.18
2019-04-16T03:04:39.164Z,0.21
2019-04-16T03:05:39.230Z,0.25
2019-04-16T03:06:39.146Z,0.28
2019-04-16T03:07:39.137Z,0.23
2019-04-16T03:08:39.164Z,0.33
2019-04-16T03:09:40.161Z,0.27
2019-04-16T03:10:41.791Z,0.16
2019-04-16T03:11:40.080Z,0.18
2019-04-16T03:12:39.051Z,0.23
2019-04-16T03:13:39.047Z,0.21
2019-04-16T03:14:39.039Z,0.20
2019-04-16T03:15:39.022Z,0.21
2019-04-16T03:16:39.046Z,0.05
2019-04-16T03:17:39.630Z,0.15
2019-04-16T03:18:38.988Z,0.12
2019-04-16T03:19:39.138Z,0.10
2019-04-16T03:20:38.972Z,0.20
2019-04-16T03:21:38.981Z,0.18
2019-04-16T03:22:38.950Z,0.18
2019-04-16T03:23:38.923Z,0.16
2019-04-16T03:24:40.232Z,0.18
2019-04-16T03:25:41.346Z,0.25
2019-04-16T03:26:39.943Z,0.34
2019-04-16T03:27:38.903Z,0.34
2019-04-16T03:28:38.891Z,0.49
2019-04-16T03:29:38.889Z,0.70
2019-04-16T03:30:42.467Z,0.62
2019-04-16T03:31:38.884Z,0.65
2019-04-16T03:32:38.864Z,0.65
2019-04-16T03:33:48.580Z,0.60
2019-04-16T03:34:39.829Z,0.64
2019-04-16T03:35:38.851Z,0.62
2019-04-16T03:36:38.858Z,0.65
2019-04-16T03:37:38.798Z,0.78
2019-04-16T03:38:42.041Z,0.79
2019-04-16T03:39:43.882Z,0.83
2019-04-16T03:40:39.767Z,0.86
2019-04-16T03:41:38.781Z,0.92
2019-04-16T03:42:38.748Z,0.79
2019-04-16T03:43:38.719Z,0.76
2019-04-16T03:44:38.768Z,0.71
2019-04-16T03:45:40.411Z,0.70
2019-04-16T03:46:40.261Z,0.67
2019-04-16T03:47:38.696Z,0.72
2019-04-16T03:48:38.689Z,0.75
2019-04-16T03:49:38.668Z,0.52
2019-04-16T03:50:38.666Z,0.43
2019-04-16T03:51:38.692Z,0.43
2019-04-16T03:52:40.888Z,0.34
2019-04-16T03:53:39.628Z,0.31
2019-04-16T03:54:38.614Z,0.36
2019-04-16T03:55:38.611Z,0.27
2019-04-16T03:56:38.699Z,0.25
2019-04-16T03:57:38.592Z,0.18
2019-04-16T03:58:39.406Z,0.25
2019-04-16T03:59:39.953Z,0.15
2019-04-16T04:00:43.679Z,0.03
2019-04-16T04:01:39.711Z,0.03
2019-04-16T04:02:38.537Z,-0.04
2019-04-16T04:03:38.527Z,0.00
2019-04-16T04:04:38.520Z,-0.01
2019-04-16T04:05:38.509Z,0.00
2019-04-16T04:06:39.655Z,0.00
2019-04-16T04:07:38.521Z,0.05
2019-04-16T04:08:38.480Z,0.00
2019-04-16T04:09:38.470Z,0.00
2019-04-16T04:10:38.460Z,-0.01
2019-04-16T04:11:41.159Z,-0.04
2019-04-16T04:12:38.460Z,-0.08
2019-04-16T04:13:38.431Z,-0.16
2019-04-16T04:14:38.421Z,-0.31
2019-04-16T04:15:38.430Z,-0.26
2019-04-16T04:16:38.403Z,-0.16
2019-04-16T04:17:39.567Z,-0.19
2019-04-16T04:18:42.872Z,-0.30
2019-04-16T04:19:39.373Z,-0.27
2019-04-16T04:20:38.357Z,-0.30
2019-04-16T04:21:38.352Z,-0.30
2019-04-16T04:22:38.357Z,-0.41
2019-04-16T04:23:38.328Z,-0.30
2019-04-16T04:24:38.445Z,-0.37
2019-04-16T04:25:38.313Z,-0.34
2019-04-16T04:26:40.941Z,-0.22
2019-04-16T04:27:38.319Z,-0.23
2019-04-16T04:28:38.283Z,-0.33
2019-04-16T04:29:38.302Z,-0.06
2019-04-16T04:30:38.255Z,-0.12
2019-04-16T04:31:38.247Z,0.00
2019-04-16T04:32:38.273Z,-0.01
2019-04-16T04:33:41.928Z,0.03
2019-04-16T04:34:38.222Z,-0.05
2019-04-16T04:35:38.208Z,0.07
2019-04-16T04:36:38.197Z,0.12
2019-04-16T04:37:38.192Z,0.23
2019-04-16T04:38:38.547Z,0.28
2019-04-16T04:39:38.173Z,0.23
2019-04-16T04:40:44.575Z,0.31
2019-04-16T04:41:39.178Z,0.43
2019-04-16T04:42:38.134Z,0.45
2019-04-16T04:43:38.406Z,0.39
2019-04-16T04:44:38.153Z,0.33
2019-04-16T04:45:40.825Z,0.36
2019-04-16T04:46:38.089Z,0.25
2019-04-16T04:47:38.111Z,0.33
2019-04-16T04:48:38.088Z,0.34
2019-04-16T04:49:38.099Z,0.42
2019-04-16T04:50:38.064Z,0.60
2019-04-16T04:51:42.393Z,0.65
2019-04-16T04:52:39.100Z,0.62
2019-04-16T04:53:38.034Z,0.71
2019-04-16T04:54:38.260Z,0.71
2019-04-16T04:55:37.999Z,0.71
2019-04-16T04:56:38.018Z,0.76
2019-04-16T04:57:38.035Z,0.80
2019-04-16T04:58:37.969Z,0.83
2019-04-16T04:59:37.996Z,0.79
2019-04-16T05:00:40.502Z,0.96
2019-04-16T05:01:37.945Z,0.86
2019-04-16T05:02:37.938Z,0.89
2019-04-16T05:03:38.026Z,0.94
2019-04-16T05:04:37.912Z,0.85
2019-04-16T05:05:37.923Z,0.82
2019-04-16T05:06:37.962Z,0.88
2019-04-16T05:07:37.885Z,1.04
2019-04-16T05:08:37.957Z,1.03
2019-04-16T05:09:37.902Z,1.07
2019-04-16T05:10:42.922Z,1.16
2019-04-16T05:11:38.849Z,1.21
2019-04-16T05:12:37.879Z,1.22
2019-04-16T05:13:37.826Z,1.37
2019-04-16T05:14:37.874Z,1.40
2019-04-16T05:15:37.805Z,1.40
2019-04-16T05:16:37.824Z,1.65
2019-04-16T05:17:38.445Z,1.94
2019-04-16T05:18:38.314Z,2.26
2019-04-16T05:19:37.792Z,2.56
2019-04-16T05:20:37.754Z,2.58
2019-04-16T05:21:37.745Z,2.84
2019-04-16T05:22:37.736Z,3.13
2019-04-16T05:23:37.907Z,3.23
2019-04-16T05:24:37.827Z,3.33
2019-04-16T05:25:37.716Z,3.54
2019-04-16T05:26:37.690Z,3.76
2019-04-16T05:27:41.259Z,3.65
2019-04-16T05:28:37.704Z,3.79
2019-04-16T05:29:37.661Z,3.97
2019-04-16T05:30:37.657Z,4.14
2019-04-16T05:31:37.645Z,4.16
2019-04-16T05:32:37.653Z,4.25
2019-04-16T05:33:38.197Z,4.42
2019-04-16T05:34:38.419Z,4.47
2019-04-16T05:35:38.655Z,4.50
2019-04-16T05:36:40.090Z,4.57
2019-04-16T05:37:37.574Z,4.73
2019-04-16T05:38:37.606Z,4.73
2019-04-16T05:39:37.561Z,4.77
2019-04-16T05:40:37.560Z,5.04
2019-04-16T05:41:37.559Z,5.01
2019-04-16T05:42:37.534Z,5.16
2019-04-16T05:43:37.545Z,5.09
2019-04-16T05:44:37.509Z,5.13
2019-04-16T05:45:37.942Z,5.23
2019-04-16T05:46:38.414Z,5.34
2019-04-16T05:47:37.479Z,5.48
2019-04-16T05:48:37.503Z,5.57
2019-04-16T05:49:37.460Z,5.63
2019-04-16T05:50:37.438Z,5.70
2019-04-16T05:51:37.446Z,5.74
2019-04-16T05:52:37.418Z,5.70
2019-04-16T05:53:40.109Z,5.77
2019-04-16T05:54:37.404Z,5.86
2019-04-16T05:55:37.393Z,5.82
2019-04-16T05:56:37.415Z,5.91
2019-04-16T05:57:37.406Z,5.93
2019-04-16T05:58:37.366Z,6.10
2019-04-16T05:59:37.358Z,6.29
2019-04-16T06:00:38.658Z,6.46
2019-04-16T06:01:37.332Z,6.62
2019-04-16T06:02:37.404Z,6.79
2019-04-16T06:03:37.310Z,6.99
2019-04-16T06:04:37.316Z,7.05
2019-04-16T06:05:37.303Z,7.19
2019-04-16T06:06:37.281Z,7.35
2019-04-16T06:07:38.001Z,7.56
2019-04-16T06:08:40.787Z,7.63
2019-04-16T06:09:37.253Z,7.77
2019-04-16T06:10:37.238Z,7.90
2019-04-16T06:11:37.220Z,8.04
2019-04-16T06:12:39.649Z,8.12
2019-04-16T06:13:37.214Z,8.07
2019-04-16T06:14:37.201Z,8.14
2019-04-16T06:15:37.209Z,8.07
2019-04-16T06:16:37.174Z,7.93
2019-04-16T06:17:37.175Z,7.41
2019-04-16T06:18:38.116Z,7.02
2019-04-16T06:19:37.261Z,6.66
2019-04-16T06:20:37.137Z,6.40
2019-04-16T06:21:37.121Z,6.66
2019-04-16T06:22:37.120Z,6.98
2019-04-16T06:23:37.153Z,7.22
2019-04-16T06:24:40.043Z,7.40
2019-04-16T06:25:41.068Z,7.60
2019-04-16T06:26:37.985Z,7.78
2019-04-16T06:27:37.086Z,7.90
2019-04-16T06:28:37.170Z,8.14
2019-04-16T06:29:37.046Z,8.36
2019-04-16T06:30:38.157Z,8.51
2019-04-16T06:31:39.224Z,8.76
2019-04-16T06:32:37.012Z,8.71
2019-04-16T06:33:37.023Z,8.84
2019-04-16T06:34:36.999Z,9.10
2019-04-16T06:35:43.321Z,9.35
2019-04-16T06:36:38.148Z,9.43
2019-04-16T06:37:36.977Z,9.56
2019-04-16T06:38:36.974Z,9.71
2019-04-16T06:39:36.941Z,9.86
2019-04-16T06:40:36.932Z,10.03
2019-04-16T06:41:41.887Z,10.18
2019-04-16T06:42:38.671Z,10.04
2019-04-16T06:43:36.928Z,10.21
2019-04-16T06:44:36.897Z,10.17
2019-04-16T06:45:37.922Z,10.18
2019-04-16T06:46:39.426Z,10.32
2019-04-16T06:47:41.788Z,10.53
2019-04-16T06:48:37.871Z,10.70
2019-04-16T06:49:39.440Z,10.99
2019-04-16T06:50:40.669Z,11.13
2019-04-16T06:51:36.807Z,11.03
2019-04-16T06:52:36.800Z,11.21
2019-04-16T06:53:36.820Z,11.32
2019-04-16T06:54:36.785Z,11.44
2019-04-16T06:55:36.769Z,11.52
2019-04-16T06:56:37.449Z,11.32
2019-04-16T06:57:36.749Z,11.32
2019-04-16T06:58:50.129Z,11.52
2019-04-16T06:59:37.817Z,11.64
2019-04-16T07:00:36.715Z,11.68
2019-04-16T07:01:38.732Z,11.78
2019-04-16T07:02:42.893Z,11.96
2019-04-16T07:03:37.730Z,11.94
2019-04-16T07:04:36.679Z,12.26
2019-04-16T07:05:36.666Z,12.26
2019-04-16T07:06:37.179Z,11.74
2019-04-16T07:07:40.015Z,11.25
2019-04-16T07:08:38.612Z,11.06
2019-04-16T07:09:41.669Z,10.83
2019-04-16T07:10:44.498Z,10.65
2019-04-16T07:11:37.596Z,10.53
2019-04-16T07:12:38.592Z,10.39
2019-04-16T07:13:41.959Z,10.32
2019-04-16T07:14:37.602Z,10.39
2019-04-16T07:15:36.594Z,10.15
2019-04-16T07:16:36.549Z,10.06
2019-04-16T07:17:36.543Z,10.32
2019-04-16T07:18:38.663Z,10.60
2019-04-16T07:19:36.515Z,10.55
2019-04-16T07:20:36.541Z,10.91
2019-04-16T07:21:36.504Z,11.21
2019-04-16T07:22:36.600Z,11.64
2019-04-16T07:23:36.608Z,11.93
2019-04-16T07:24:37.758Z,12.39
2019-04-16T07:25:41.713Z,12.62
2019-04-16T07:26:39.510Z,12.66
2019-04-16T07:27:38.688Z,13.03
2019-04-16T07:28:36.567Z,12.99
2019-04-16T07:29:36.480Z,12.78
2019-04-16T07:30:39.966Z,13.12
2019-04-16T07:31:36.432Z,13.17
2019-04-16T07:32:36.413Z,13.04
2019-04-16T07:33:36.429Z,13.17
2019-04-16T07:34:36.362Z,12.97
2019-04-16T07:35:36.370Z,12.64
2019-04-16T07:36:36.378Z,12.64
2019-04-16T07:37:36.332Z,13.06
2019-04-16T07:38:36.334Z,13.09
2019-04-16T07:39:37.204Z,13.14
2019-04-16T07:40:36.305Z,13.06
2019-04-16T07:41:36.288Z,13.09
2019-04-16T07:43:37.281Z,12.74
2019-04-16T07:43:47.060Z,12.87
2019-04-16T07:44:36.458Z,12.78
2019-04-16T07:45:36.249Z,12.74
2019-04-16T07:46:36.236Z,12.96
2019-04-16T07:47:36.271Z,13.54
2019-04-16T07:48:36.217Z,14.06
2019-04-16T07:49:36.231Z,14.42
2019-04-16T07:50:36.191Z,14.50
2019-04-16T07:51:36.726Z,14.68
2019-04-16T07:52:38.994Z,15.03
2019-04-16T07:53:37.163Z,15.49
2019-04-16T07:54:36.157Z,15.74
2019-04-16T07:55:36.205Z,15.76
2019-04-16T07:56:36.138Z,15.97
2019-04-16T07:57:36.130Z,16.07
2019-04-16T07:58:36.133Z,16.26
2019-04-16T07:59:36.097Z,16.37
2019-04-16T08:00:40.362Z,16.55
2019-04-16T08:01:37.106Z,16.98
2019-04-16T08:02:36.066Z,17.07
2019-04-16T08:03:36.051Z,17.54
2019-04-16T08:04:36.461Z,17.87
2019-04-16T08:05:37.770Z,18.12
2019-04-16T08:06:36.027Z,18.22
2019-04-16T08:07:36.048Z,18.22
2019-04-16T08:08:36.000Z,17.81
2019-04-16T08:09:36.000Z,18.07
2019-04-16T08:10:35.995Z,18.39
2019-04-16T08:11:36.010Z,18.73
2019-04-16T08:12:35.977Z,18.82
2019-04-16T08:13:35.950Z,18.84
2019-04-16T08:14:35.983Z,18.98
2019-04-16T08:15:35.974Z,18.62
2019-04-16T08:16:46.617Z,18.84
2019-04-16T08:17:36.944Z,18.59
2019-04-16T08:18:35.892Z,18.17
2019-04-16T08:19:37.397Z,18.03
2019-04-16T08:20:35.879Z,17.64
2019-04-16T08:21:35.863Z,17.23
2019-04-16T08:22:35.886Z,17.23
2019-04-16T08:23:38.947Z,17.50
2019-04-16T08:24:35.838Z,17.59
2019-04-16T08:25:35.815Z,17.97
2019-04-16T08:26:35.809Z,18.29
2019-04-16T08:27:35.833Z,18.28
2019-04-16T08:28:35.792Z,18.58
2019-04-16T08:29:35.782Z,19.11
2019-04-16T08:30:39.331Z,19.18
2019-04-16T08:31:35.758Z,19.23
2019-04-16T08:32:35.785Z,19.32
2019-04-16T08:33:35.733Z,18.92
2019-04-16T08:34:35.745Z,18.97
2019-04-16T08:35:35.713Z,19.21
2019-04-16T08:36:35.698Z,19.60
2019-04-16T08:37:48.375Z,19.80
2019-04-16T08:38:36.682Z,19.61
2019-04-16T08:39:36.911Z,19.39
2019-04-16T08:40:35.667Z,19.42
2019-04-16T08:41:35.663Z,19.55
2019-04-16T08:42:44.183Z,19.70
2019-04-16T08:43:36.652Z,19.68
2019-04-16T08:44:36.473Z,20.20
2019-04-16T08:45:39.176Z,20.53
2019-04-16T08:46:35.606Z,20.77
2019-04-16T08:47:35.618Z,20.99
2019-04-16T08:48:35.583Z,20.62
2019-04-16T08:49:35.575Z,20.35
2019-04-16T08:50:35.576Z,20.21
2019-04-16T08:51:37.766Z,20.58
2019-04-16T08:52:35.580Z,20.93
2019-04-16T08:53:35.840Z,21.42
2019-04-16T08:54:35.519Z,21.42
2019-04-16T08:55:35.502Z,21.30
2019-04-16T08:56:35.494Z,21.54
2019-04-16T08:57:35.488Z,21.98
2019-04-16T08:58:38.108Z,21.95
2019-04-16T08:59:35.465Z,21.64
2019-04-16T09:00:35.447Z,21.54
2019-04-16T09:01:35.449Z,21.45
2019-04-16T09:02:35.445Z,21.61
2019-04-16T09:03:35.463Z,22.20
2019-04-16T09:04:35.428Z,22.35
2019-04-16T09:05:35.396Z,22.39
2019-04-16T09:06:35.429Z,22.35
2019-04-16T09:07:35.384Z,22.54
2019-04-16T09:08:35.402Z,22.69
2019-04-16T09:09:35.359Z,22.83
2019-04-16T09:10:35.346Z,22.83
2019-04-16T09:11:36.297Z,22.84
2019-04-16T09:12:40.680Z,22.69
2019-04-16T09:13:36.344Z,22.75
2019-04-16T09:14:35.320Z,22.54
2019-04-16T09:15:35.301Z,22.83
2019-04-16T09:16:35.286Z,23.02
2019-04-16T09:17:35.281Z,23.29
2019-04-16T09:18:35.302Z,23.20
2019-04-16T09:19:35.264Z,22.90
2019-04-16T09:20:37.916Z,22.67
2019-04-16T09:21:35.239Z,22.12
2019-04-16T09:22:48.055Z,22.02
2019-04-16T09:23:36.290Z,22.32
2019-04-16T09:24:40.175Z,22.80
2019-04-16T09:25:36.193Z,23.20
2019-04-16T09:26:35.217Z,23.45
2019-04-16T09:27:35.181Z,23.19
2019-04-16T09:28:35.165Z,23.27
2019-04-16T09:29:35.187Z,22.89
2019-04-16T09:30:35.181Z,22.56
2019-04-16T09:31:35.136Z,22.90
2019-04-16T09:32:35.125Z,23.01
2019-04-16T09:33:35.146Z,23.31
2019-04-16T09:34:35.618Z,23.31
2019-04-16T09:35:35.089Z,23.60
2019-04-16T09:36:35.108Z,24.05
2019-04-16T09:37:35.930Z,24.17
2019-04-16T09:38:35.101Z,24.34
2019-04-16T09:39:35.049Z,24.50
2019-04-16T09:40:35.042Z,24.77
2019-04-16T09:41:35.026Z,24.85
2019-04-16T09:42:35.022Z,24.53
2019-04-16T09:43:35.072Z,24.50
2019-04-16T09:44:35.560Z,24.27
2019-04-16T09:45:37.196Z,24.54
2019-04-16T09:46:50.971Z,24.79
2019-04-16T09:47:35.972Z,24.97
2019-04-16T09:48:35.587Z,25.16
2019-04-16T09:49:37.501Z,25.31
2019-04-16T09:50:34.941Z,25.72
2019-04-16T09:51:35.117Z,26.01
2019-04-16T09:52:34.918Z,26.31
2019-04-16T09:53:40.038Z,26.29
2019-04-16T09:54:35.899Z,26.43
2019-04-16T09:55:34.896Z,26.81
2019-04-16T09:56:34.882Z,27.10
2019-04-16T09:57:34.899Z,27.51
2019-04-16T09:58:37.693Z,27.48
2019-04-16T09:59:34.851Z,27.28
2019-04-16T10:00:34.831Z,27.76
2019-04-16T10:01:34.832Z,27.48
2019-04-16T10:02:34.854Z,27.73
2019-04-16T10:03:34.812Z,27.39
2019-04-16T10:04:34.849Z,26.81
2019-04-16T10:05:34.789Z,26.58
2019-04-16T10:06:34.775Z,26.69
2019-04-16T10:07:39.838Z,26.68
2019-04-16T10:08:35.767Z,26.61
2019-04-16T10:09:34.769Z,26.52
2019-04-16T10:10:34.731Z,26.81
2019-04-16T10:11:35.778Z,27.05
2019-04-16T10:12:34.714Z,27.20
2019-04-16T10:13:36.226Z,27.23
2019-04-16T10:14:34.735Z,25.87
2019-04-16T10:15:34.684Z,25.42
2019-04-16T10:16:34.694Z,25.38
2019-04-16T10:17:34.680Z,25.49
2019-04-16T10:18:35.808Z,25.44
2019-04-16T10:19:34.684Z,25.24
2019-04-16T10:20:34.672Z,25.30
2019-04-16T10:21:34.647Z,25.69
2019-04-16T10:22:34.616Z,25.83
2019-04-16T10:23:34.615Z,25.83
2019-04-16T10:24:34.625Z,25.71
2019-04-16T10:25:34.620Z,25.77
2019-04-16T10:26:34.588Z,25.71
2019-04-16T10:27:34.589Z,25.99
2019-04-16T10:28:37.124Z,26.31
2019-04-16T10:29:34.588Z,26.28
2019-04-16T10:30:34.537Z,26.12
2019-04-16T10:31:34.544Z,26.40
2019-04-16T10:32:34.533Z,26.11
2019-04-16T10:33:34.518Z,26.08
2019-04-16T10:34:36.277Z,25.64
2019-04-16T10:35:34.487Z,26.02
2019-04-16T10:36:37.257Z,26.11
2019-04-16T10:37:34.472Z,26.25
2019-04-16T10:38:34.464Z,26.17
2019-04-16T10:39:34.495Z,26.29
2019-04-16T10:40:34.442Z,26.68
2019-04-16T10:41:34.460Z,26.91
2019-04-16T10:42:34.446Z,27.09
2019-04-16T10:43:44.485Z,27.36
2019-04-16T10:44:35.429Z,27.10
2019-04-16T10:45:34.417Z,27.35
2019-04-16T10:46:34.378Z,27.42
2019-04-16T10:47:35.843Z,27.62
2019-04-16T10:48:34.372Z,27.19
2019-04-16T10:49:34.355Z,27.10
2019-04-16T10:50:34.398Z,27.54
2019-04-16T10:51:34.335Z,27.88
2019-04-16T10:52:34.313Z,28.07
2019-04-16T10:53:34.339Z,28.14
2019-04-16T10:54:37.157Z,28.16
2019-04-16T10:55:34.549Z,28.04
2019-04-16T10:56:34.293Z,27.89
2019-04-16T10:57:34.306Z,27.99
2019-04-16T10:58:34.261Z,28.19
2019-04-16T10:59:34.265Z,27.67
2019-04-16T11:00:34.317Z,27.71
2019-04-16T11:01:35.124Z,27.82
2019-04-16T11:02:34.224Z,27.98
2019-04-16T11:03:34.666Z,27.91
2019-04-16T11:04:34.197Z,26.86
2019-04-16T11:05:34.224Z,26.67
2019-04-16T11:06:34.208Z,26.08
2019-04-16T11:07:34.176Z,25.34
2019-04-16T11:08:34.168Z,25.02
2019-04-16T11:09:34.141Z,25.07
2019-04-16T11:10:34.176Z,24.90
2019-04-16T11:11:34.181Z,25.09
2019-04-16T11:12:34.213Z,25.28
2019-04-16T11:13:34.106Z,25.56
2019-04-16T11:14:34.090Z,25.71
2019-04-16T11:15:34.110Z,25.67
2019-04-16T11:16:36.007Z,26.09
2019-04-16T11:17:34.065Z,26.86
2019-04-16T11:18:34.086Z,27.50
2019-04-16T11:19:34.060Z,27.50
2019-04-16T11:20:34.077Z,27.66
2019-04-16T11:21:34.059Z,27.62
2019-04-16T11:22:34.114Z,28.21
2019-04-16T11:23:34.026Z,28.40
2019-04-16T11:24:34.038Z,28.31
2019-04-16T11:25:33.983Z,28.32
2019-04-16T11:26:33.977Z,28.97
2019-04-16T11:27:33.963Z,29.59
2019-04-16T11:28:33.973Z,30.18
2019-04-16T11:29:33.958Z,30.47
2019-04-16T11:30:33.967Z,30.33
2019-04-16T11:31:33.923Z,30.21
2019-04-16T11:32:38.861Z,30.40
2019-04-16T11:33:34.902Z,30.52
2019-04-16T11:34:33.901Z,30.78
2019-04-16T11:35:33.942Z,30.98
2019-04-16T11:36:33.919Z,29.52
2019-04-16T11:37:36.252Z,28.88
2019-04-16T11:38:33.869Z,27.80
2019-04-16T11:39:33.859Z,27.85
2019-04-16T11:40:33.880Z,27.80
2019-04-16T11:41:33.901Z,26.99
2019-04-16T11:42:33.839Z,26.65
2019-04-16T11:43:33.831Z,26.73
2019-04-16T11:44:33.830Z,27.67
2019-04-16T11:45:33.844Z,28.29
2019-04-16T11:46:33.783Z,28.28
2019-04-16T11:47:34.762Z,28.26
2019-04-16T11:48:37.158Z,27.61
2019-04-16T11:49:33.803Z,27.46
2019-04-16T11:50:36.102Z,27.33
2019-04-16T11:51:33.742Z,27.47
2019-04-16T11:52:33.753Z,28.01
2019-04-16T11:53:33.743Z,28.59
2019-04-16T11:54:33.734Z,28.63
2019-04-16T11:55:33.746Z,28.66
2019-04-16T11:56:33.737Z,28.82
2019-04-16T11:57:34.117Z,28.53
2019-04-16T11:58:33.711Z,28.31
2019-04-16T11:59:33.663Z,28.50
2019-04-16T12:00:33.721Z,29.33
2019-04-16T12:01:33.644Z,30.11
2019-04-16T12:02:33.702Z,30.89
2019-04-16T12:03:36.538Z,30.93
2019-04-16T12:04:33.608Z,30.71
2019-04-16T12:05:33.689Z,29.86
2019-04-16T12:06:33.601Z,29.99
2019-04-16T12:07:33.602Z,30.26
2019-04-16T12:08:33.617Z,30.02
2019-04-16T12:09:33.559Z,29.84
2019-04-16T12:10:33.600Z,29.38
2019-04-16T12:11:33.629Z,29.33
2019-04-16T12:12:33.539Z,29.07
2019-04-16T12:13:33.547Z,29.00
2019-04-16T12:14:34.920Z,29.11
2019-04-16T12:15:33.515Z,28.82
2019-04-16T12:16:33.566Z,28.81
2019-04-16T12:17:36.341Z,28.78
2019-04-16T12:18:33.512Z,29.22
2019-04-16T12:19:33.466Z,29.26
2019-04-16T12:20:33.515Z,28.93
2019-04-16T12:21:33.496Z,29.03
2019-04-16T12:22:33.468Z,28.78
2019-04-16T12:23:33.432Z,28.62
2019-04-16T12:24:33.411Z,28.46
2019-04-16T12:25:33.439Z,28.50
2019-04-16T12:26:33.442Z,28.95
2019-04-16T12:27:33.398Z,29.45
2019-04-16T12:28:33.394Z,29.49
2019-04-16T12:29:33.380Z,29.55
2019-04-16T12:30:33.371Z,29.26
2019-04-16T12:31:33.407Z,28.60
2019-04-16T12:32:33.352Z,28.38
2019-04-16T12:33:33.379Z,28.16
2019-04-16T12:34:33.348Z,27.92
2019-04-16T12:35:34.734Z,27.73
2019-04-16T12:36:33.345Z,27.02
2019-04-16T12:37:37.408Z,27.06
2019-04-16T12:38:33.289Z,27.38
2019-04-16T12:39:35.768Z,27.42
2019-04-16T12:40:33.290Z,26.80
2019-04-16T12:41:33.386Z,25.91
2019-04-16T12:42:33.249Z,25.49
2019-04-16T12:43:33.242Z,25.37
2019-04-16T12:44:44.463Z,25.56
2019-04-16T12:45:34.238Z,25.98
2019-04-16T12:46:33.332Z,26.08
2019-04-16T12:47:33.197Z,26.28
2019-04-16T12:48:33.219Z,26.68
2019-04-16T12:49:33.200Z,27.04
2019-04-16T12:50:33.203Z,27.16
2019-04-16T12:51:33.193Z,27.11
2019-04-16T12:52:33.182Z,27.42
2019-04-16T12:53:36.117Z,27.53
2019-04-16T12:54:33.180Z,27.28
2019-04-16T12:55:33.155Z,27.28
2019-04-16T12:56:33.184Z,27.04
2019-04-16T12:57:33.083Z,26.79
2019-04-16T12:58:33.090Z,26.31
2019-04-16T12:59:33.087Z,25.99
2019-04-16T13:00:33.063Z,25.50
2019-04-16T13:01:33.327Z,25.31
2019-04-16T13:02:33.041Z,25.50
2019-04-16T13:03:33.033Z,25.64
2019-04-16T13:04:33.032Z,25.94